Terminal Aerodrome Forecast
Issued by NWS

Home | Current Version | Previous Version | Text Only | Print | Product List | Glossary On
Versions: 1 2 3 4 5 6 7 8 9 10 11 12 13 14 15
000
FTUS42 KMLB 031140
TAFISM
TAF
KISM 031140Z 0312/0412 VRB02KT P6SM SKC
     FM031400 23004KT P6SM FEW030 SCT250
     FM031900 12008KT P6SM VCTS SCT035CB SCT150
     FM032300 14006KT P6SM SCT040 BKN250=

USA.gov is the U.S. government's official web portal to all federal, state and local government web resources and services.